PWSweather.com
Personal Weather Stations
Station Observations
IONTARIO88
Lincoln, ON L0R

Lincoln, ON L0R

Lat: 43.1763563, Lon: -79.4719525

Elevation: 297

Station Type: Davis Vantage Pro 2 Plus

http://www.beamsvillewx.ca

High Low Average
Temperature 35.8°F2.1°C 18.3°F-7.6°C 26.6°F-3.0°C
Dew Point 17.9°F-7.8°C 6.9°F-13.9°C 11.6°F-11.3°C
Winds 15.0 mph 24.1 kmh Calm Calm 4.0 mph SW6.4 kmh SW
Wind Gusts 16.0 mph25.7 kmh -- 6.0 mph9.7 kmh
Humidity 69% 39% 53%
Pressure 30.64 in1037.6 mb 30.31 in1026.4 mb -
Precipitation 0.00 in0.0 mm - -
Hour Temp Dew Point Humidity Winds Wind Gusts Pressure Precip Precip Rate Daily Precip Total
12:01 AM 23.3°F-4.8°C 8.7°F-12.9°C 53% 8.0 mph WNW12.9 kmh WNW 16.0 mph25.7 kmh 30.47 in1031.8 mb 0.00 in0.0 mm 0.00 in/hr0.0 mm/hr 0.00 in0.0 mm
12:10 AM 23.2°F-4.9°C 6.9°F-13.9°C 49% 3.0 mph NW4.8 kmh NW 12.0 mph19.3 kmh 30.47 in1031.8 mb 0.00 in0.0 mm 0.00 in/hr0.0 mm/hr 0.00 in0.0 mm
12:20 AM 23.2°F-4.9°C 7.3°F-13.7°C 50% 6.0 mph W9.7 kmh W 6.0 mph9.7 kmh 30.48 in1032.2 mb 0.00 in0.0 mm 0.00 in/hr0.0 mm/hr 0.00 in0.0 mm
12:31 AM 23.0°F-5.0°C 7.6°F-13.6°C 51% 6.0 mph NW9.7 kmh NW 16.0 mph25.7 kmh 30.48 in1032.2 mb 0.00 in0.0 mm 0.00 in/hr0.0 mm/hr 0.00 in0.0 mm
12:40 AM 23.0°F-5.0°C 7.6°F-13.6°C 51% 11.0 mph WSW17.7 kmh WSW 11.0 mph17.7 kmh 30.48 in1032.2 mb 0.00 in0.0 mm 0.00 in/hr0.0 mm/hr 0.00 in0.0 mm
12:50 AM 22.9°F-5.1°C 7.5°F-13.6°C 51% 8.0 mph W12.9 kmh W 10.0 mph16.1 kmh 30.48 in1032.2 mb 0.00 in0.0 mm 0.00 in/hr0.0 mm/hr 0.00 in0.0 mm
01:01 AM 22.9°F-5.1°C 7.5°F-13.6°C 51% 5.0 mph NW8.0 kmh NW 16.0 mph25.7 kmh 30.49 in1032.5 mb 0.00 in0.0 mm 0.00 in/hr0.0 mm/hr 0.00 in0.0 mm
01:10 AM 22.7°F-5.2°C 7.7°F-13.5°C 52% 6.0 mph W9.7 kmh W 9.0 mph14.5 kmh 30.49 in1032.5 mb 0.00 in0.0 mm 0.00 in/hr0.0 mm/hr 0.00 in0.0 mm
01:20 AM 22.4°F-5.3°C 7.9°F-13.4°C 53% 3.0 mph W4.8 kmh W 10.0 mph16.1 kmh 30.50 in1032.8 mb 0.00 in0.0 mm 0.00 in/hr0.0 mm/hr 0.00 in0.0 mm
01:31 AM 22.4°F-5.3°C 8.7°F-12.9°C 55% 7.0 mph NW11.3 kmh NW 11.0 mph17.7 kmh 30.50 in1032.8 mb 0.00 in0.0 mm 0.00 in/hr0.0 mm/hr 0.00 in0.0 mm
01:40 AM 22.3°F-5.4°C 8.6°F-13.0°C 55% 6.0 mph WNW9.7 kmh WNW 8.0 mph12.9 kmh 30.50 in1032.8 mb 0.00 in0.0 mm 0.00 in/hr0.0 mm/hr 0.00 in0.0 mm
01:50 AM 22.1°F-5.5°C 8.4°F-13.1°C 55% 6.0 mph W9.7 kmh W 6.0 mph9.7 kmh 30.50 in1032.8 mb 0.00 in0.0 mm 0.00 in/hr0.0 mm/hr 0.00 in0.0 mm
02:01 AM 22.0°F-5.6°C 8.3°F-13.2°C 55% 5.0 mph WNW8.0 kmh WNW 9.0 mph14.5 kmh 30.50 in1032.8 mb 0.00 in0.0 mm 0.00 in/hr0.0 mm/hr 0.00 in0.0 mm
02:10 AM 22.0°F-5.6°C 8.3°F-13.2°C 55% 9.0 mph WNW14.5 kmh WNW 9.0 mph14.5 kmh 30.50 in1032.8 mb 0.00 in0.0 mm 0.00 in/hr0.0 mm/hr 0.00 in0.0 mm
02:20 AM 21.8°F-5.7°C 8.5°F-13.1°C 56% 5.0 mph W8.0 kmh W 6.0 mph9.7 kmh 30.51 in1033.2 mb 0.00 in0.0 mm 0.00 in/hr0.0 mm/hr 0.00 in0.0 mm
02:31 AM 21.8°F-5.7°C 8.5°F-13.1°C 56% 5.0 mph W8.0 kmh W 10.0 mph16.1 kmh 30.51 in1033.2 mb 0.00 in0.0 mm 0.00 in/hr0.0 mm/hr 0.00 in0.0 mm
02:40 AM 21.7°F-5.7°C 8.4°F-13.1°C 56% 8.0 mph WNW12.9 kmh WNW 11.0 mph17.7 kmh 30.51 in1033.2 mb 0.00 in0.0 mm 0.00 in/hr0.0 mm/hr 0.00 in0.0 mm
02:50 AM 21.7°F-5.7°C 8.8°F-12.9°C 57% 10.0 mph WNW16.1 kmh WNW 10.0 mph16.1 kmh 30.53 in1033.9 mb 0.00 in0.0 mm 0.00 in/hr0.0 mm/hr 0.00 in0.0 mm
03:01 AM 21.5°F-5.8°C 9.0°F-12.8°C 58% 4.0 mph NW6.4 kmh NW 12.0 mph19.3 kmh 30.52 in1033.5 mb 0.00 in0.0 mm 0.00 in/hr0.0 mm/hr 0.00 in0.0 mm
03:10 AM 21.3°F-5.9°C 9.2°F-12.7°C 59% 5.0 mph W8.0 kmh W 7.0 mph11.3 kmh 30.52 in1033.5 mb 0.00 in0.0 mm 0.00 in/hr0.0 mm/hr 0.00 in0.0 mm
03:20 AM 21.2°F-6.0°C 9.5°F-12.5°C 60% 9.0 mph W14.5 kmh W 9.0 mph14.5 kmh 30.53 in1033.9 mb 0.00 in0.0 mm 0.00 in/hr0.0 mm/hr 0.00 in0.0 mm
03:31 AM 21.0°F-6.1°C 8.9°F-12.8°C 59% 2.0 mph NW3.2 kmh NW 7.0 mph11.3 kmh 30.53 in1033.9 mb 0.00 in0.0 mm 0.00 in/hr0.0 mm/hr 0.00 in0.0 mm
03:40 AM 21.0°F-6.1°C 9.3°F-12.6°C 60% 8.0 mph W12.9 kmh W 9.0 mph14.5 kmh 30.53 in1033.9 mb 0.00 in0.0 mm 0.00 in/hr0.0 mm/hr 0.00 in0.0 mm
03:50 AM 20.9°F-6.2°C 8.8°F-12.9°C 59% 4.0 mph WNW6.4 kmh WNW 7.0 mph11.3 kmh 30.53 in1033.9 mb 0.00 in0.0 mm 0.00 in/hr0.0 mm/hr 0.00 in0.0 mm
04:01 AM 20.9°F-6.2°C 9.2°F-12.7°C 60% 4.0 mph NW6.4 kmh NW 10.0 mph16.1 kmh 30.53 in1033.9 mb 0.00 in0.0 mm 0.00 in/hr0.0 mm/hr 0.00 in0.0 mm
04:10 AM 20.9°F-6.2°C 9.2°F-12.7°C 60% 2.0 mph WSW3.2 kmh WSW 3.0 mph4.8 kmh 30.53 in1033.9 mb 0.00 in0.0 mm 0.00 in/hr0.0 mm/hr 0.00 in0.0 mm
04:20 AM 20.9°F-6.2°C 9.2°F-12.7°C 60% 7.0 mph NW11.3 kmh NW 7.0 mph11.3 kmh 30.54 in1034.2 mb 0.00 in0.0 mm 0.00 in/hr0.0 mm/hr 0.00 in0.0 mm
04:31 AM 20.6°F-6.3°C 9.3°F-12.6°C 61% 4.0 mph WSW6.4 kmh WSW 8.0 mph12.9 kmh 30.54 in1034.2 mb 0.00 in0.0 mm 0.00 in/hr0.0 mm/hr 0.00 in0.0 mm
04:40 AM 20.6°F-6.3°C 9.3°F-12.6°C 61% 2.0 mph NW3.2 kmh NW 3.0 mph4.8 kmh 30.54 in1034.2 mb 0.00 in0.0 mm 0.00 in/hr0.0 mm/hr 0.00 in0.0 mm
04:50 AM 20.6°F-6.3°C 9.7°F-12.4°C 62% 5.0 mph W8.0 kmh W 5.0 mph8.0 kmh 30.55 in1034.5 mb 0.00 in0.0 mm 0.00 in/hr0.0 mm/hr 0.00 in0.0 mm
05:01 AM 20.4°F-6.4°C 9.5°F-12.5°C 62% 4.0 mph WSW6.4 kmh WSW 5.0 mph8.0 kmh 30.56 in1034.9 mb 0.00 in0.0 mm 0.00 in/hr0.0 mm/hr 0.00 in0.0 mm
05:10 AM 20.2°F-6.6°C 9.6°F-12.4°C 63% Calm Calm -- 30.56 in1034.9 mb 0.00 in0.0 mm 0.00 in/hr0.0 mm/hr 0.00 in0.0 mm
05:20 AM 20.1°F-6.6°C 9.5°F-12.5°C 63% 2.0 mph WSW3.2 kmh WSW 3.0 mph4.8 kmh 30.56 in1034.9 mb 0.00 in0.0 mm 0.00 in/hr0.0 mm/hr 0.00 in0.0 mm
05:31 AM 19.9°F-6.7°C 9.4°F-12.6°C 63% 2.0 mph NW3.2 kmh NW 2.0 mph3.2 kmh 30.56 in1034.9 mb 0.00 in0.0 mm 0.00 in/hr0.0 mm/hr 0.00 in0.0 mm
05:40 AM 19.9°F-6.7°C 9.7°F-12.4°C 64% Calm Calm 1.0 mph1.6 kmh 30.56 in1034.9 mb 0.00 in0.0 mm 0.00 in/hr0.0 mm/hr 0.00 in0.0 mm
05:50 AM 19.8°F-6.8°C 10.0°F-12.2°C 65% Calm Calm -- 30.56 in1034.9 mb 0.00 in0.0 mm 0.00 in/hr0.0 mm/hr 0.00 in0.0 mm
06:01 AM 19.6°F-6.9°C 9.8°F-12.3°C 65% 3.0 mph NW4.8 kmh NW 3.0 mph4.8 kmh 30.56 in1034.9 mb 0.00 in0.0 mm 0.00 in/hr0.0 mm/hr 0.00 in0.0 mm
06:10 AM 19.3°F-7.1°C 9.8°F-12.3°C 66% Calm Calm -- 30.56 in1034.9 mb 0.00 in0.0 mm 0.00 in/hr0.0 mm/hr 0.00 in0.0 mm
06:20 AM 19.0°F-7.2°C 9.9°F-12.3°C 67% Calm Calm -- 30.57 in1035.2 mb 0.00 in0.0 mm 0.00 in/hr0.0 mm/hr 0.00 in0.0 mm
06:31 AM 18.7°F-7.4°C 9.9°F-12.3°C 68% Calm Calm -- 30.58 in1035.6 mb 0.00 in0.0 mm 0.00 in/hr0.0 mm/hr 0.00 in0.0 mm
06:40 AM 18.3°F-7.6°C 9.5°F-12.5°C 68% 2.0 mph NW3.2 kmh NW 3.0 mph4.8 kmh 30.58 in1035.6 mb 0.00 in0.0 mm 0.00 in/hr0.0 mm/hr 0.00 in0.0 mm
06:50 AM 18.3°F-7.6°C 9.5°F-12.5°C 68% Calm Calm -- 30.58 in1035.6 mb 0.00 in0.0 mm 0.00 in/hr0.0 mm/hr 0.00 in0.0 mm
07:01 AM 18.5°F-7.5°C 10.0°F-12.2°C 69% Calm Calm 1.0 mph1.6 kmh 30.59 in1035.9 mb 0.00 in0.0 mm 0.00 in/hr0.0 mm/hr 0.00 in0.0 mm
07:10 AM 18.5°F-7.5°C 10.0°F-12.2°C 69% 1.0 mph WNW1.6 kmh WNW 1.0 mph1.6 kmh 30.59 in1035.9 mb 0.00 in0.0 mm 0.00 in/hr0.0 mm/hr 0.00 in0.0 mm
07:20 AM 18.7°F-7.4°C 10.2°F-12.1°C 69% Calm Calm -- 30.59 in1035.9 mb 0.00 in0.0 mm 0.00 in/hr0.0 mm/hr 0.00 in0.0 mm
07:31 AM 19.0°F-7.2°C 10.5°F-11.9°C 69% 3.0 mph WNW4.8 kmh WNW 3.0 mph4.8 kmh 30.60 in1036.2 mb 0.00 in0.0 mm 0.00 in/hr0.0 mm/hr 0.00 in0.0 mm
07:40 AM 19.3°F-7.1°C 10.8°F-11.8°C 69% Calm Calm 1.0 mph1.6 kmh 30.60 in1036.2 mb 0.00 in0.0 mm 0.00 in/hr0.0 mm/hr 0.00 in0.0 mm
07:50 AM 20.2°F-6.6°C 11.7°F-11.3°C 69% 4.0 mph WNW6.4 kmh WNW 4.0 mph6.4 kmh 30.61 in1036.6 mb 0.00 in0.0 mm 0.00 in/hr0.0 mm/hr 0.00 in0.0 mm
08:01 AM 21.5°F-5.8°C 12.3°F-10.9°C 67% 2.0 mph W3.2 kmh W 4.0 mph6.4 kmh 30.61 in1036.6 mb 0.00 in0.0 mm 0.00 in/hr0.0 mm/hr 0.00 in0.0 mm
08:10 AM 21.8°F-5.7°C 12.2°F-11.0°C 66% 2.0 mph W3.2 kmh W 3.0 mph4.8 kmh 30.61 in1036.6 mb 0.00 in0.0 mm 0.00 in/hr0.0 mm/hr 0.00 in0.0 mm
08:20 AM 22.3°F-5.4°C 12.0°F-11.1°C 64% 2.0 mph W3.2 kmh W 3.0 mph4.8 kmh 30.61 in1036.6 mb 0.00 in0.0 mm 0.00 in/hr0.0 mm/hr 0.00 in0.0 mm
08:31 AM 23.2°F-4.9°C 12.5°F-10.8°C 63% 1.0 mph W1.6 kmh W 5.0 mph8.0 kmh 30.61 in1036.6 mb 0.00 in0.0 mm 0.00 in/hr0.0 mm/hr 0.00 in0.0 mm
08:40 AM 23.9°F-4.5°C 12.4°F-10.9°C 61% Calm Calm -- 30.61 in1036.6 mb 0.00 in0.0 mm 0.00 in/hr0.0 mm/hr 0.00 in0.0 mm
08:50 AM 24.6°F-4.1°C 13.1°F-10.5°C 61% 3.0 mph W4.8 kmh W 3.0 mph4.8 kmh 30.62 in1036.9 mb 0.00 in0.0 mm 0.00 in/hr0.0 mm/hr 0.00 in0.0 mm
09:01 AM 25.5°F-3.6°C 13.2°F-10.4°C 59% Calm Calm 1.0 mph1.6 kmh 30.62 in1036.9 mb 0.00 in0.0 mm 0.00 in/hr0.0 mm/hr 0.00 in0.0 mm
09:10 AM 26.3°F-3.2°C 13.6°F-10.2°C 58% Calm Calm -- 30.62 in1036.9 mb 0.00 in0.0 mm 0.00 in/hr0.0 mm/hr 0.00 in0.0 mm
09:20 AM 27.0°F-2.8°C 13.8°F-10.1°C 57% Calm Calm -- 30.63 in1037.3 mb 0.00 in0.0 mm 0.00 in/hr0.0 mm/hr 0.00 in0.0 mm
09:31 AM 27.0°F-2.8°C 13.4°F-10.3°C 56% Calm Calm 3.0 mph4.8 kmh 30.64 in1037.6 mb 0.00 in0.0 mm 0.00 in/hr0.0 mm/hr 0.00 in0.0 mm
09:40 AM 26.9°F-2.8°C 13.7°F-10.2°C 57% 3.0 mph W4.8 kmh W 4.0 mph6.4 kmh 30.64 in1037.6 mb 0.00 in0.0 mm 0.00 in/hr0.0 mm/hr 0.00 in0.0 mm
09:50 AM 27.5°F-2.5°C 13.1°F-10.5°C 54% Calm Calm -- 30.63 in1037.3 mb 0.00 in0.0 mm 0.00 in/hr0.0 mm/hr 0.00 in0.0 mm
10:01 AM 28.2°F-2.1°C 13.3°F-10.4°C 53% Calm Calm 2.0 mph3.2 kmh 30.62 in1036.9 mb 0.00 in0.0 mm 0.00 in/hr0.0 mm/hr 0.00 in0.0 mm
10:10 AM 28.3°F-2.1°C 12.1°F-11.1°C 50% 1.0 mph W1.6 kmh W 2.0 mph3.2 kmh 30.62 in1036.9 mb 0.00 in0.0 mm 0.00 in/hr0.0 mm/hr 0.00 in0.0 mm
10:20 AM 28.5°F-1.9°C 12.7°F-10.7°C 51% Calm Calm -- 30.61 in1036.6 mb 0.00 in0.0 mm 0.00 in/hr0.0 mm/hr 0.00 in0.0 mm
10:31 AM 29.1°F-1.6°C 13.2°F-10.4°C 51% Calm Calm 4.0 mph6.4 kmh 30.61 in1036.6 mb 0.00 in0.0 mm 0.00 in/hr0.0 mm/hr 0.00 in0.0 mm
10:40 AM 28.8°F-1.8°C 12.1°F-11.1°C 49% Calm Calm 1.0 mph1.6 kmh 30.61 in1036.6 mb 0.00 in0.0 mm 0.00 in/hr0.0 mm/hr 0.00 in0.0 mm
10:50 AM 28.9°F-1.7°C 13.1°F-10.5°C 51% Calm Calm -- 30.60 in1036.2 mb 0.00 in0.0 mm 0.00 in/hr0.0 mm/hr 0.00 in0.0 mm
11:01 AM 30.7°F-0.7°C 13.4°F-10.3°C 48% 4.0 mph WSW6.4 kmh WSW 4.0 mph6.4 kmh 30.59 in1035.9 mb 0.00 in0.0 mm 0.00 in/hr0.0 mm/hr 0.00 in0.0 mm
11:10 AM 30.1°F-1.1°C 11.8°F-11.2°C 46% Calm Calm -- 30.59 in1035.9 mb 0.00 in0.0 mm 0.00 in/hr0.0 mm/hr 0.00 in0.0 mm
11:20 AM 30.1°F-1.1°C 11.3°F-11.5°C 45% Calm Calm -- 30.58 in1035.6 mb 0.00 in0.0 mm 0.00 in/hr0.0 mm/hr 0.00 in0.0 mm
11:31 AM 29.5°F-1.4°C 11.3°F-11.5°C 46% Calm Calm 7.0 mph11.3 kmh 30.57 in1035.2 mb 0.00 in0.0 mm 0.00 in/hr0.0 mm/hr 0.00 in0.0 mm
11:40 AM 30.1°F-1.1°C 11.3°F-11.5°C 45% Calm Calm -- 30.57 in1035.2 mb 0.00 in0.0 mm 0.00 in/hr0.0 mm/hr 0.00 in0.0 mm
11:50 AM 30.4°F-0.9°C 12.6°F-10.8°C 47% 1.0 mph S1.6 kmh S 1.0 mph1.6 kmh 30.58 in1035.6 mb 0.00 in0.0 mm 0.00 in/hr0.0 mm/hr 0.00 in0.0 mm
12:01 PM 30.7°F-0.7°C 11.4°F-11.4°C 44% 2.0 mph S3.2 kmh S 5.0 mph8.0 kmh 30.57 in1035.2 mb 0.00 in0.0 mm 0.00 in/hr0.0 mm/hr 0.00 in0.0 mm
12:10 PM 31.3°F-0.4°C 10.9°F-11.7°C 42% 3.0 mph SE4.8 kmh SE 4.0 mph6.4 kmh 30.57 in1035.2 mb 0.00 in0.0 mm 0.00 in/hr0.0 mm/hr 0.00 in0.0 mm
12:20 PM 31.6°F-0.2°C 11.2°F-11.6°C 42% 5.0 mph SSE8.0 kmh SSE 5.0 mph8.0 kmh 30.56 in1034.9 mb 0.00 in0.0 mm 0.00 in/hr0.0 mm/hr 0.00 in0.0 mm
12:31 PM 31.7°F-0.2°C 11.3°F-11.5°C 42% 5.0 mph SE8.0 kmh SE 10.0 mph16.1 kmh 30.55 in1034.5 mb 0.00 in0.0 mm 0.00 in/hr0.0 mm/hr 0.00 in0.0 mm
12:40 PM 31.9°F-0.1°C 13.0°F-10.6°C 45% 3.0 mph SSE4.8 kmh SSE 4.0 mph6.4 kmh 30.55 in1034.5 mb 0.00 in0.0 mm 0.00 in/hr0.0 mm/hr 0.00 in0.0 mm
12:50 PM 32.2°F0.1°C 13.3°F-10.4°C 45% 7.0 mph SE11.3 kmh SE 7.0 mph11.3 kmh 30.54 in1034.2 mb 0.00 in0.0 mm 0.00 in/hr0.0 mm/hr 0.00 in0.0 mm
01:01 PM 32.6°F0.3°C 12.6°F-10.8°C 43% 3.0 mph SE4.8 kmh SE 9.0 mph14.5 kmh 30.53 in1033.9 mb 0.00 in0.0 mm 0.00 in/hr0.0 mm/hr 0.00 in0.0 mm
01:10 PM 32.6°F0.3°C 12.6°F-10.8°C 43% 5.0 mph SSE8.0 kmh SSE 9.0 mph14.5 kmh 30.53 in1033.9 mb 0.00 in0.0 mm 0.00 in/hr0.0 mm/hr 0.00 in0.0 mm
01:20 PM 32.6°F0.3°C 11.5°F-11.4°C 41% 9.0 mph ESE14.5 kmh ESE 9.0 mph14.5 kmh 30.53 in1033.9 mb 0.00 in0.0 mm 0.00 in/hr0.0 mm/hr 0.00 in0.0 mm
01:31 PM 32.3°F0.2°C 11.8°F-11.2°C 42% 2.0 mph SSW3.2 kmh SSW 5.0 mph8.0 kmh 30.52 in1033.5 mb 0.00 in0.0 mm 0.00 in/hr0.0 mm/hr 0.00 in0.0 mm
01:40 PM 31.9°F-0.1°C 11.4°F-11.4°C 42% 4.0 mph SE6.4 kmh SE 4.0 mph6.4 kmh 30.52 in1033.5 mb 0.00 in0.0 mm 0.00 in/hr0.0 mm/hr 0.00 in0.0 mm
01:50 PM 31.2°F-0.4°C 11.8°F-11.2°C 44% 6.0 mph SSE9.7 kmh SSE 6.0 mph9.7 kmh 30.51 in1033.2 mb 0.00 in0.0 mm 0.00 in/hr0.0 mm/hr 0.00 in0.0 mm
02:00 PM 30.9°F-0.6°C 11.6°F-11.3°C 44% 5.0 mph SSE8.0 kmh SSE 12.0 mph19.3 kmh 30.50 in1032.8 mb 0.00 in0.0 mm 0.00 in/hr0.0 mm/hr 0.00 in0.0 mm
02:10 PM 30.9°F-0.6°C 12.1°F-11.1°C 45% 9.0 mph SE14.5 kmh SE 9.0 mph14.5 kmh 30.50 in1032.8 mb 0.00 in0.0 mm 0.00 in/hr0.0 mm/hr 0.00 in0.0 mm
02:20 PM 31.0°F-0.6°C 12.7°F-10.7°C 46% 7.0 mph SE11.3 kmh SE 8.0 mph12.9 kmh 30.49 in1032.5 mb 0.00 in0.0 mm 0.00 in/hr0.0 mm/hr 0.00 in0.0 mm
02:31 PM 31.5°F-0.3°C 13.1°F-10.5°C 46% 6.0 mph SE9.7 kmh SE 11.0 mph17.7 kmh 30.48 in1032.2 mb 0.00 in0.0 mm 0.00 in/hr0.0 mm/hr 0.00 in0.0 mm
02:40 PM 32.3°F0.2°C 13.4°F-10.3°C 45% 15.0 mph S24.1 kmh S 15.0 mph24.1 kmh 30.48 in1032.2 mb 0.00 in0.0 mm 0.00 in/hr0.0 mm/hr 0.00 in0.0 mm
02:50 PM 32.3°F0.2°C 13.9°F-10.1°C 46% 9.0 mph SSE14.5 kmh SSE 9.0 mph14.5 kmh 30.48 in1032.2 mb 0.00 in0.0 mm 0.00 in/hr0.0 mm/hr 0.00 in0.0 mm
03:01 PM 32.3°F0.2°C 13.9°F-10.1°C 46% 6.0 mph S9.7 kmh S 12.0 mph19.3 kmh 30.47 in1031.8 mb 0.00 in0.0 mm 0.00 in/hr0.0 mm/hr 0.00 in0.0 mm
03:10 PM 32.2°F0.1°C 14.3°F-9.8°C 47% 6.0 mph SSE9.7 kmh SSE 8.0 mph12.9 kmh 30.47 in1031.8 mb 0.00 in0.0 mm 0.00 in/hr0.0 mm/hr 0.00 in0.0 mm
03:20 PM 32.6°F0.3°C 13.6°F-10.2°C 45% 4.0 mph S6.4 kmh S 6.0 mph9.7 kmh 30.46 in1031.5 mb 0.00 in0.0 mm 0.00 in/hr0.0 mm/hr 0.00 in0.0 mm
03:31 PM 33.8°F1.0°C 12.1°F-11.1°C 40% 5.0 mph WSW8.0 kmh WSW 12.0 mph19.3 kmh 30.45 in1031.2 mb 0.00 in0.0 mm 0.00 in/hr0.0 mm/hr 0.00 in0.0 mm
03:40 PM 34.3°F1.3°C 11.9°F-11.2°C 39% 4.0 mph SE6.4 kmh SE 6.0 mph9.7 kmh 30.45 in1031.2 mb 0.00 in0.0 mm 0.00 in/hr0.0 mm/hr 0.00 in0.0 mm
03:50 PM 34.1°F1.2°C 11.8°F-11.2°C 39% 5.0 mph SE8.0 kmh SE 9.0 mph14.5 kmh 30.44 in1030.8 mb 0.00 in0.0 mm 0.00 in/hr0.0 mm/hr 0.00 in0.0 mm
04:01 PM 34.1°F1.2°C 14.0°F-10.0°C 43% 5.0 mph SSE8.0 kmh SSE 13.0 mph20.9 kmh 30.42 in1030.1 mb 0.00 in0.0 mm 0.00 in/hr0.0 mm/hr 0.00 in0.0 mm
04:10 PM 35.0°F1.7°C 15.8°F-9.0°C 45% 6.0 mph S9.7 kmh S 6.0 mph9.7 kmh 30.42 in1030.1 mb 0.00 in0.0 mm 0.00 in/hr0.0 mm/hr 0.00 in0.0 mm
04:20 PM 35.6°F2.0°C 15.9°F-8.9°C 44% 5.0 mph SSW8.0 kmh SSW 5.0 mph8.0 kmh 30.42 in1030.1 mb 0.00 in0.0 mm 0.00 in/hr0.0 mm/hr 0.00 in0.0 mm
04:31 PM 35.7°F2.1°C 15.9°F-8.9°C 44% 6.0 mph SSE9.7 kmh SSE 8.0 mph12.9 kmh 30.41 in1029.8 mb 0.00 in0.0 mm 0.00 in/hr0.0 mm/hr 0.00 in0.0 mm
04:40 PM 35.7°F2.1°C 16.5°F-8.6°C 45% 10.0 mph S16.1 kmh S 10.0 mph16.1 kmh 30.41 in1029.8 mb 0.00 in0.0 mm 0.00 in/hr0.0 mm/hr 0.00 in0.0 mm
04:50 PM 35.8°F2.1°C 17.1°F-8.3°C 46% 10.0 mph ESE16.1 kmh ESE 10.0 mph16.1 kmh 30.41 in1029.8 mb 0.00 in0.0 mm 0.00 in/hr0.0 mm/hr 0.00 in0.0 mm
05:01 PM 35.8°F2.1°C 17.1°F-8.3°C 46% 6.0 mph SE9.7 kmh SE 13.0 mph20.9 kmh 30.40 in1029.5 mb 0.00 in0.0 mm 0.00 in/hr0.0 mm/hr 0.00 in0.0 mm
05:10 PM 35.7°F2.1°C 17.0°F-8.3°C 46% 4.0 mph SSE6.4 kmh SSE 4.0 mph6.4 kmh 30.40 in1029.5 mb 0.00 in0.0 mm 0.00 in/hr0.0 mm/hr 0.00 in0.0 mm
05:20 PM 35.8°F2.1°C 17.1°F-8.3°C 46% 4.0 mph S6.4 kmh S 4.0 mph6.4 kmh 30.39 in1029.1 mb 0.00 in0.0 mm 0.00 in/hr0.0 mm/hr 0.00 in0.0 mm
05:31 PM 35.7°F2.1°C 17.0°F-8.3°C 46% 5.0 mph SSE8.0 kmh SSE 10.0 mph16.1 kmh 30.37 in1028.4 mb 0.00 in0.0 mm 0.00 in/hr0.0 mm/hr 0.00 in0.0 mm
05:40 PM 35.3°F1.8°C 17.1°F-8.3°C 47% 9.0 mph SSE14.5 kmh SSE 9.0 mph14.5 kmh 30.37 in1028.4 mb 0.00 in0.0 mm 0.00 in/hr0.0 mm/hr 0.00 in0.0 mm
05:50 PM 35.0°F1.7°C 17.3°F-8.2°C 48% 2.0 mph SSE3.2 kmh SSE 2.0 mph3.2 kmh 30.36 in1028.1 mb 0.00 in0.0 mm 0.00 in/hr0.0 mm/hr 0.00 in0.0 mm
06:01 PM 34.4°F1.3°C 17.2°F-8.2°C 49% 8.0 mph SE12.9 kmh SE 9.0 mph14.5 kmh 30.36 in1028.1 mb 0.00 in0.0 mm 0.00 in/hr0.0 mm/hr 0.00 in0.0 mm
06:10 PM 33.8°F1.0°C 17.6°F-8.0°C 51% 8.0 mph SE12.9 kmh SE 10.0 mph16.1 kmh 30.36 in1028.1 mb 0.00 in0.0 mm 0.00 in/hr0.0 mm/hr 0.00 in0.0 mm
06:20 PM 33.2°F0.7°C 17.9°F-7.8°C 53% 9.0 mph S14.5 kmh S 9.0 mph14.5 kmh 30.33 in1027.1 mb 0.00 in0.0 mm 0.00 in/hr0.0 mm/hr 0.00 in0.0 mm
06:31 PM 32.6°F0.3°C 17.8°F-7.9°C 54% 5.0 mph S8.0 kmh S 8.0 mph12.9 kmh 30.31 in1026.4 mb 0.00 in0.0 mm 0.00 in/hr0.0 mm/hr 0.00 in0.0 mm
06:40 PM 32.3°F0.2°C 17.5°F-8.1°C 54% 10.0 mph ESE16.1 kmh ESE 10.0 mph16.1 kmh 30.31 in1026.4 mb 0.00 in0.0 mm 0.00 in/hr0.0 mm/hr 0.00 in0.0 mm
06:50 PM 32.3°F0.2°C 17.5°F-8.1°C 54% 5.0 mph S8.0 kmh S 5.0 mph8.0 kmh 30.30 in1026.1 mb 0.00 in0.0 mm 0.00 in/hr0.0 mm/hr 0.00 in0.0 mm
07:01 PM 32.3°F0.2°C 18.0°F-7.8°C 55% 8.0 mph S12.9 kmh S 11.0 mph17.7 kmh 30.28 in1025.4 mb 0.00 in0.0 mm 0.00 in/hr0.0 mm/hr 0.00 in0.0 mm
07:10 PM 32.3°F0.2°C 18.4°F-7.6°C 56% 6.0 mph E9.7 kmh E 6.0 mph9.7 kmh 30.28 in1025.4 mb 0.00 in0.0 mm 0.00 in/hr0.0 mm/hr 0.00 in0.0 mm
07:20 PM 32.5°F0.3°C 18.6°F-7.4°C 56% 6.0 mph S9.7 kmh S 6.0 mph9.7 kmh 30.28 in1025.4 mb 0.00 in0.0 mm 0.00 in/hr0.0 mm/hr 0.00 in0.0 mm
07:31 PM 32.6°F0.3°C 18.7°F-7.4°C 56% 4.0 mph SE6.4 kmh SE 10.0 mph16.1 kmh 30.28 in1025.4 mb 0.00 in0.0 mm 0.00 in/hr0.0 mm/hr 0.00 in0.0 mm
07:40 PM 32.8°F0.4°C 19.3°F-7.1°C 57% 13.0 mph SSE20.9 kmh SSE 13.0 mph20.9 kmh 30.28 in1025.4 mb 0.00 in0.0 mm 0.00 in/hr0.0 mm/hr 0.00 in0.0 mm
07:50 PM 32.9°F0.5°C 19.4°F-7.0°C 57% 10.0 mph SSE16.1 kmh SSE 13.0 mph20.9 kmh 30.27 in1025.1 mb 0.00 in0.0 mm 0.00 in/hr0.0 mm/hr 0.00 in0.0 mm
08:10 PM 33.7°F0.9°C 20.1°F-6.6°C 57% 6.0 mph SSE9.7 kmh SSE 8.0 mph12.9 kmh 30.25 in1024.4 mb 0.00 in0.0 mm 0.00 in/hr0.0 mm/hr 0.00 in0.0 mm
08:20 PM 34.3°F1.3°C 20.7°F-6.3°C 57% 6.0 mph SW9.7 kmh SW 6.0 mph9.7 kmh 30.25 in1024.4 mb 0.00 in0.0 mm 0.00 in/hr0.0 mm/hr 0.00 in0.0 mm
08:31 PM 34.7°F1.5°C 21.0°F-6.1°C 57% 6.0 mph SSE9.7 kmh SSE 20.0 mph32.2 kmh 30.25 in1024.4 mb 0.00 in0.0 mm 0.00 in/hr0.0 mm/hr 0.00 in0.0 mm
08:40 PM 35.3°F1.8°C 21.2°F-6.0°C 56% 7.0 mph SSW11.3 kmh SSW 7.0 mph11.3 kmh 30.25 in1024.4 mb 0.00 in0.0 mm 0.00 in/hr0.0 mm/hr 0.00 in0.0 mm
08:50 PM 35.8°F2.1°C 21.2°F-6.0°C 55% 7.0 mph SSW11.3 kmh SSW 7.0 mph11.3 kmh 30.26 in1024.7 mb 0.00 in0.0 mm 0.00 in/hr0.0 mm/hr 0.00 in0.0 mm
09:01 PM 36.3°F2.4°C 21.3°F-5.9°C 54% 2.0 mph SSW3.2 kmh SSW 9.0 mph14.5 kmh 30.28 in1025.4 mb 0.00 in0.0 mm 0.00 in/hr0.0 mm/hr 0.00 in0.0 mm
09:10 PM 36.7°F2.6°C 21.2°F-6.0°C 53% 4.0 mph S6.4 kmh S 5.0 mph8.0 kmh 30.28 in1025.4 mb 0.00 in0.0 mm 0.00 in/hr0.0 mm/hr 0.00 in0.0 mm
09:20 PM 37.0°F2.8°C 21.5°F-5.8°C 53% 2.0 mph S3.2 kmh S 3.0 mph4.8 kmh 30.30 in1026.1 mb 0.00 in0.0 mm 0.00 in/hr0.0 mm/hr 0.00 in0.0 mm
09:31 PM 37.0°F2.8°C 21.5°F-5.8°C 53% 1.0 mph S1.6 kmh S 8.0 mph12.9 kmh 30.29 in1025.7 mb 0.00 in0.0 mm 0.00 in/hr0.0 mm/hr 0.00 in0.0 mm
09:40 PM 37.1°F2.8°C 21.6°F-5.8°C 53% 3.0 mph SSW4.8 kmh SSW 3.0 mph4.8 kmh 30.29 in1025.7 mb 0.00 in0.0 mm 0.00 in/hr0.0 mm/hr 0.00 in0.0 mm
09:50 PM 37.6°F3.1°C 21.6°F-5.8°C 52% 7.0 mph SSE11.3 kmh SSE 10.0 mph16.1 kmh 30.29 in1025.7 mb 0.00 in0.0 mm 0.00 in/hr0.0 mm/hr 0.00 in0.0 mm
10:01 PM 37.9°F3.3°C 21.4°F-5.9°C 51% 4.0 mph SSE6.4 kmh SSE 10.0 mph16.1 kmh 30.30 in1026.1 mb 0.00 in0.0 mm 0.00 in/hr0.0 mm/hr 0.00 in0.0 mm
10:10 PM 37.9°F3.3°C 21.9°F-5.6°C 52% 5.0 mph S8.0 kmh S 5.0 mph8.0 kmh 30.30 in1026.1 mb 0.00 in0.0 mm 0.00 in/hr0.0 mm/hr 0.00 in0.0 mm
10:20 PM 37.9°F3.3°C 21.9°F-5.6°C 52% Calm Calm -- 30.30 in1026.1 mb 0.00 in0.0 mm 0.00 in/hr0.0 mm/hr 0.00 in0.0 mm
10:31 PM 37.6°F3.1°C 22.0°F-5.6°C 53% 2.0 mph SSW3.2 kmh SSW 6.0 mph9.7 kmh 30.30 in1026.1 mb 0.00 in0.0 mm 0.00 in/hr0.0 mm/hr 0.00 in0.0 mm
10:40 PM 37.4°F3.0°C 22.3°F-5.4°C 54% 5.0 mph SW8.0 kmh SW 5.0 mph8.0 kmh 30.30 in1026.1 mb 0.00 in0.0 mm 0.00 in/hr0.0 mm/hr 0.00 in0.0 mm
10:50 PM 37.3°F2.9°C 22.6°F-5.2°C 55% 4.0 mph SSW6.4 kmh SSW 5.0 mph8.0 kmh 30.30 in1026.1 mb 0.00 in0.0 mm 0.00 in/hr0.0 mm/hr 0.00 in0.0 mm
11:01 PM 37.4°F3.0°C 23.2°F-4.9°C 56% 4.0 mph S6.4 kmh S 8.0 mph12.9 kmh 30.30 in1026.1 mb 0.00 in0.0 mm 0.00 in/hr0.0 mm/hr 0.00 in0.0 mm
11:10 PM 37.6°F3.1°C 23.3°F-4.8°C 56% 5.0 mph S8.0 kmh S 7.0 mph11.3 kmh 30.30 in1026.1 mb 0.00 in0.0 mm 0.00 in/hr0.0 mm/hr 0.00 in0.0 mm
11:20 PM 37.7°F3.2°C 23.4°F-4.8°C 56% 3.0 mph SSW4.8 kmh SSW 3.0 mph4.8 kmh 30.29 in1025.7 mb 0.00 in0.0 mm 0.00 in/hr0.0 mm/hr 0.00 in0.0 mm
11:31 PM 37.7°F3.2°C 23.4°F-4.8°C 56% 3.0 mph WSW4.8 kmh WSW 7.0 mph11.3 kmh 30.29 in1025.7 mb 0.00 in0.0 mm 0.00 in/hr0.0 mm/hr 0.00 in0.0 mm
11:40 PM 37.9°F3.3°C 23.6°F-4.7°C 56% 4.0 mph S6.4 kmh S 7.0 mph11.3 kmh 30.29 in1025.7 mb 0.00 in0.0 mm 0.00 in/hr0.0 mm/hr 0.00 in0.0 mm
11:50 PM 37.9°F3.3°C 23.6°F-4.7°C 56% 3.0 mph S4.8 kmh S 4.0 mph6.4 kmh 30.28 in1025.4 mb 0.00 in0.0 mm 0.00 in/hr0.0 mm/hr 0.00 in0.0 mm